首页
METAR-TAF:

METAR-TAF

机场 :

瑟堡, 法国

纬度: 49-39N, 经度: 001-28W, 海拔: 138米

当前天气观测

该预报发布于34分钟前的16:00 UTC
风速15节,风向西转西北,在西西北之间变化
温度 14°C
湿度 67%
气压 1001 hPa
能见度10公里或以上
多云层高于3100英尺
多云层高于3900英尺

METAR: LFRC 051600Z AUTO 29015KT 260V320 9999 BKN031 BKN039 14/08 Q1001

时间: 18:34 (16:34 UTC)


TAF: 丢失

超过4000个机场的气象观测和天气预报(METAR&TAF报告)。

可查询的气象台以黄色和红色小点在地图上表示。

将鼠标移到小点上方,可查看气象台名称。

然后点击查看天气观测和预报。

如需切换地图:点击带黑十字的绿色按钮放大地图;点击带横线的绿色按钮缩小地图;或者点击绿色箭头查看邻近地区的地图。


METAR-TAF: